Time;durP1;ratioP1;P1;durP2;ratioP2;P2;SDS_P1;SDS_P2;PMS_P1;PMS_P2;Temp;Humidity;BMP_temperature;BMP_pressure;BME280_temperature;BME280_humidity;BME280_pressure;Samples;Min_cycle;Max_cycle;Signal;HPM_P1;HPM_P2
2022/06/03 00:02:07;;;;;;;1.23;0.77;;;;;;;25.95;48.52;99113.88;5060439;28;20048;-68
2022/06/03 00:04:44;;;;;;;1.08;0.70;;;;;;;25.95;48.76;99111.06;5064625;28;20063;-68
2022/06/03 00:07:31;;;;;;;1.08;0.82;;;;;;;25.94;48.91;99115.88;5062220;28;20044;-69
2022/06/03 00:10:06;;;;;;;1.00;0.70;;;;;;;25.94;48.81;99112.28;5064728;28;20530;-68
2022/06/03 00:12:52;;;;;;;0.98;0.65;;;;;;;25.93;48.63;99111.50;5059231;28;20127;-68
2022/06/03 00:15:36;;;;;;;0.88;0.70;;;;;;;25.92;48.63;99117.50;5061233;28;20127;-68
2022/06/03 00:18:36;;;;;;;2.03;1.10;;;;;;;25.91;48.89;99139.13;5067470;28;20041;-68
2022/06/03 00:21:09;;;;;;;1.10;0.80;;;;;;;25.91;48.89;99136.31;5057551;28;20045;-68
2022/06/03 00:23:46;;;;;;;1.00;0.80;;;;;;;25.89;48.89;99133.16;5063008;28;20051;-68
2022/06/03 00:26:32;;;;;;;1.13;0.80;;;;;;;25.89;48.92;99129.53;5053203;28;20056;-68
2022/06/03 00:29:20;;;;;;;0.60;0.60;;;;;;;25.88;48.66;99119.56;5049742;28;20056;-69
2022/06/03 00:32:14;;;;;;;1.20;0.80;;;;;;;25.91;48.97;99118.72;5037576;28;20417;-68
2022/06/03 00:35:16;;;;;;;1.25;0.82;;;;;;;25.91;48.89;99122.31;4976318;28;20047;-68
2022/06/03 00:38:11;;;;;;;0.90;0.60;;;;;;;25.89;48.66;99118.34;4977231;28;20051;-68
2022/06/03 00:41:06;;;;;;;1.10;0.80;;;;;;;25.88;48.77;99122.34;4974421;28;20081;-68
2022/06/03 00:43:46;;;;;;;1.27;0.75;;;;;;;25.86;49.11;99114.38;4973852;28;20162;-68
2022/06/03 00:46:39;;;;;;;0.73;0.63;;;;;;;25.88;49.01;99109.13;4974129;28;20058;-68
2022/06/03 00:49:23;;;;;;;0.90;0.70;;;;;;;25.88;48.99;99123.16;4970026;28;20511;-68
2022/06/03 00:52:01;;;;;;;0.70;0.68;;;;;;;25.87;49.09;99120.78;4984271;28;20057;-68
2022/06/03 00:55:04;;;;;;;1.00;0.80;;;;;;;25.87;48.97;99113.16;4984203;28;20058;-68
2022/06/03 00:57:54;;;;;;;1.20;0.70;;;;;;;25.87;49.21;99115.16;4979825;28;20606;-68
2022/06/03 01:00:29;;;;;;;1.30;0.80;;;;;;;25.86;49.02;99108.78;4982087;28;20142;-68
2022/06/03 01:03:24;;;;;;;1.23;0.80;;;;;;;25.86;48.89;99116.34;4985761;28;20058;-69
2022/06/03 01:06:17;;;;;;;1.10;0.80;;;;;;;25.86;48.95;99116.34;4973628;28;20055;-69
2022/06/03 01:09:20;;;;;;;1.30;0.88;;;;;;;25.86;49.12;99133.16;4975145;28;20054;-68
2022/06/03 01:12:07;;;;;;;1.02;0.77;;;;;;;25.86;49.23;99121.97;5019784;28;20409;-68
2022/06/03 01:15:04;;;;;;;1.00;0.75;;;;;;;25.84;49.24;99113.19;5046239;28;20167;-68
2022/06/03 01:18:07;;;;;;;1.35;0.90;;;;;;;25.84;49.33;99094.34;5058182;28;20397;-68
2022/06/03 01:20:39;;;;;;;1.50;0.80;;;;;;;25.81;49.24;99083.19;5056043;28;20084;-68
2022/06/03 01:23:25;;;;;;;1.02;0.70;;;;;;;25.84;49.15;99091.56;5062264;28;20515;-67
2022/06/03 01:26:15;;;;;;;1.60;0.93;;;;;;;25.84;49.27;99069.16;5068582;28;20320;-68
2022/06/03 01:29:04;;;;;;;1.13;0.80;;;;;;;25.83;49.04;99072.38;5061726;28;20179;-69
2022/06/03 01:31:42;;;;;;;1.23;0.90;;;;;;;25.83;49.18;99063.97;5051638;28;20044;-68
2022/06/03 01:34:21;;;;;;;0.98;0.75;;;;;;;25.83;49.21;99061.16;5054603;28;20053;-69
2022/06/03 01:36:52;;;;;;;1.23;0.80;;;;;;;25.82;49.11;99065.19;5045767;28;20425;-68
2022/06/03 01:39:17;;;;;;;0.98;0.80;;;;;;;25.83;49.00;99050.75;5063776;28;20358;-68
2022/06/03 01:41:52;;;;;;;0.90;0.70;;;;;;;25.83;49.05;99052.75;5069254;28;20358;-68
2022/06/03 01:44:26;;;;;;;1.20;0.80;;;;;;;25.82;49.33;99040.75;5061822;28;20126;-68
2022/06/03 01:47:36;;;;;;;1.33;0.82;;;;;;;25.81;49.08;99032.78;5067726;28;20048;-68
2022/06/03 01:50:04;;;;;;;0.90;0.70;;;;;;;25.82;49.25;99028.75;5051397;28;21949;-68
2022/06/03 01:53:01;;;;;;;1.25;0.80;;;;;;;25.81;49.27;99027.97;5038939;28;20048;-68
2022/06/03 01:56:14;;;;;;;1.08;0.77;;;;;;;25.77;49.29;99016.78;5062150;28;20128;-68
2022/06/03 01:59:05;;;;;;;0.98;0.70;;;;;;;25.77;49.03;99013.97;5053675;28;20524;-68
2022/06/03 02:01:31;;;;;;;1.10;0.75;;;;;;;25.76;49.31;99017.22;5065236;28;20072;-68
2022/06/03 02:04:09;;;;;;;1.15;0.80;;;;;;;25.75;49.00;99008.00;5054636;28;20048;-69
2022/06/03 02:06:53;;;;;;;1.38;0.80;;;;;;;25.77;49.09;99002.78;5062200;28;20416;-68
2022/06/03 02:09:47;;;;;;;1.35;0.80;;;;;;;25.75;49.01;98999.59;5070765;28;20776;-69
2022/06/03 02:12:40;;;;;;;1.05;0.80;;;;;;;25.77;49.38;99011.19;5051724;28;20421;-69
2022/06/03 02:15:43;;;;;;;1.10;0.70;;;;;;;25.76;49.06;99025.63;5067701;28;20414;-69
2022/06/03 02:18:36;;;;;;;1.10;0.70;;;;;;;25.75;48.95;99038.03;5059084;28;20037;-68
2022/06/03 02:21:27;;;;;;;1.00;0.70;;;;;;;25.74;48.88;99034.44;5064576;28;20048;-68
2022/06/03 02:24:04;;;;;;;0.95;0.75;;;;;;;25.75;49.00;99036.03;5059776;28;20139;-69
2022/06/03 02:26:56;;;;;;;1.40;0.93;;;;;;;25.75;48.75;99033.22;5071234;28;20507;-68
2022/06/03 02:32:32;;;;;;;0.80;0.70;;;;;;;25.75;48.98;99024.81;5057250;28;20048;-68
2022/06/03 02:35:25;;;;;;;1.45;0.82;;;;;;;25.74;49.26;99026.03;5060340;28;20139;-68
2022/06/03 02:38:16;;;;;;;1.13;0.82;;;;;;;25.73;49.30;99023.66;5056311;28;20045;-68
2022/06/03 02:41:15;;;;;;;0.80;0.70;;;;;;;25.73;49.29;99027.25;5056001;28;20552;-68
2022/06/03 02:43:59;;;;;;;1.00;0.77;;;;;;;25.74;49.05;99028.03;5055578;28;20381;-68
2022/06/03 02:46:48;;;;;;;1.00;0.75;;;;;;;25.71;49.03;99024.03;5060004;28;20071;-68
2022/06/03 02:49:37;;;;;;;1.33;0.88;;;;;;;25.74;49.02;99034.44;5044292;28;20505;-68
2022/06/03 02:52:32;;;;;;;1.20;0.82;;;;;;;25.73;49.09;99032.84;5069503;28;20041;-69
2022/06/03 02:55:16;;;;;;;1.73;0.70;;;;;;;25.72;49.00;99031.28;5060811;28;20080;-68
2022/06/03 02:57:56;;;;;;;1.05;0.70;;;;;;;25.71;49.37;99040.84;5057708;28;20052;-68
2022/06/03 03:00:31;;;;;;;1.00;0.70;;;;;;;25.70;49.28;99033.66;5068200;28;20048;-68
2022/06/03 03:03:23;;;;;;;1.10;0.80;;;;;;;25.72;49.04;99024.88;5069759;28;20060;-69
2022/06/03 03:05:54;;;;;;;0.93;0.70;;;;;;;25.71;49.31;99028.84;5060234;28;20048;-69
2022/06/03 03:09:01;;;;;;;1.00;0.73;;;;;;;25.71;49.29;99038.03;5040070;28;20037;-68
2022/06/03 03:11:41;;;;;;;1.27;0.80;;;;;;;25.70;49.17;99052.47;4988251;28;20097;-68
2022/06/03 03:14:19;;;;;;;1.00;0.80;;;;;;;25.69;49.12;99048.88;4971186;28;20050;-69
2022/06/03 03:16:53;;;;;;;0.77;0.70;;;;;;;25.70;49.21;99046.84;4988901;28;20141;-68
2022/06/03 03:19:27;;;;;;;1.05;0.80;;;;;;;25.70;49.04;99056.06;4988405;28;20046;-68
2022/06/03 03:22:30;;;;;;;1.15;0.80;;;;;;;25.70;49.35;99049.66;4986636;28;20407;-68
2022/06/03 03:25:02;;;;;;;1.60;0.90;;;;;;;25.68;49.48;99047.28;4985803;28;20050;-68
2022/06/03 03:27:45;;;;;;;0.82;0.60;;;;;;;25.69;49.12;99054.47;4988850;28;20101;-68
2022/06/03 03:30:22;;;;;;;0.93;0.70;;;;;;;25.70;49.44;99039.25;4988431;28;20048;-68
2022/06/03 03:33:18;;;;;;;1.10;0.90;;;;;;;25.69;49.36;99042.47;4988660;28;20054;-68
2022/06/03 03:36:05;;;;;;;0.98;0.73;;;;;;;25.71;49.48;99043.63;4987348;28;20046;-68
2022/06/03 03:39:09;;;;;;;1.35;0.90;;;;;;;25.70;49.20;99046.84;4988221;28;20066;-69
2022/06/03 03:41:59;;;;;;;1.45;0.93;;;;;;;25.71;49.48;99031.63;4911521;29;20051;-69
2022/06/03 03:44:48;;;;;;;1.20;0.80;;;;;;;25.70;49.21;99030.06;4910126;29;20406;-68
2022/06/03 03:47:49;;;;;;;1.17;0.90;;;;;;;25.68;49.61;99022.06;4907696;29;20082;-68
2022/06/03 03:50:59;;;;;;;1.02;0.80;;;;;;;25.68;49.62;99029.69;4985107;28;20046;-68
2022/06/03 03:53:56;;;;;;;1.27;0.85;;;;;;;25.66;49.57;99029.31;4960529;28;20057;-68
2022/06/03 03:56:40;;;;;;;2.08;0.80;;;;;;;25.65;49.60;99025.72;4988192;28;20108;-68
2022/06/03 03:59:24;;;;;;;1.23;0.80;;;;;;;25.66;49.49;99020.91;4982513;28;20574;-69
2022/06/03 04:02:17;;;;;;;1.40;0.95;;;;;;;25.65;49.69;99019.31;4981220;28;20130;-69
2022/06/03 04:04:55;;;;;;;0.90;0.73;;;;;;;25.63;49.83;99000.13;4973792;28;20561;-68
2022/06/03 04:07:46;;;;;;;1.20;0.70;;;;;;;25.65;49.76;98991.31;4988366;28;20565;-69
2022/06/03 04:10:41;;;;;;;1.10;0.80;;;;;;;25.63;49.67;98982.50;4984060;28;20122;-69
2022/06/03 04:13:40;;;;;;;1.15;0.80;;;;;;;25.65;49.74;98983.72;4977443;28;20121;-68
2022/06/03 04:16:08;;;;;;;1.15;0.80;;;;;;;25.67;49.41;98991.69;4974173;28;20573;-69
2022/06/03 04:18:58;;;;;;;1.20;0.82;;;;;;;25.65;49.49;98983.72;5041202;28;20055;-68
2022/06/03 04:21:41;;;;;;;2.00;1.02;;;;;;;25.66;49.65;98988.09;5063144;28;20053;-68
2022/06/03 04:24:25;;;;;;;0.80;0.70;;;;;;;25.67;49.37;98994.47;5062238;28;20060;-69
2022/06/03 04:27:27;;;;;;;1.35;0.90;;;;;;;25.64;49.51;99001.69;5056461;28;20103;-69
2022/06/03 04:30:14;;;;;;;1.48;0.90;;;;;;;25.63;49.36;98997.31;5057801;28;20041;-68
2022/06/03 04:32:48;;;;;;;1.30;0.80;;;;;;;25.65;49.63;98986.50;5067981;28;20043;-68
2022/06/03 04:35:35;;;;;;;1.40;0.90;;;;;;;25.64;49.48;98979.28;5067706;28;20048;-69
2022/06/03 04:38:18;;;;;;;1.25;0.80;;;;;;;25.64;49.46;98984.09;5056334;28;20029;-69
2022/06/03 04:41:05;;;;;;;0.93;0.80;;;;;;;25.63;49.19;98982.50;5057370;28;20048;-69
2022/06/03 04:43:49;;;;;;;1.33;0.88;;;;;;;25.62;49.42;98987.31;5068871;28;20044;-68
2022/06/03 04:46:42;;;;;;;1.38;0.85;;;;;;;25.63;49.16;98986.09;5066753;28;20049;-69
2022/06/03 04:49:36;;;;;;;1.00;0.80;;;;;;;25.64;49.53;98973.69;5060871;28;20075;-69
2022/06/03 04:52:42;;;;;;;1.25;0.85;;;;;;;25.61;49.25;98970.94;5062975;28;20040;-68
2022/06/03 04:55:45;;;;;;;1.20;0.80;;;;;;;25.57;49.62;98972.97;5056068;28;20052;-68
2022/06/03 04:58:39;;;;;;;1.35;0.90;;;;;;;25.55;49.43;98972.59;5062406;28;20055;-68
2022/06/03 05:01:40;;;;;;;0.88;0.70;;;;;;;25.53;49.46;98979.44;5058432;28;20513;-68
2022/06/03 05:04:43;;;;;;;1.17;0.80;;;;;;;25.52;49.82;98960.25;5050434;28;20061;-68
2022/06/03 05:07:27;;;;;;;1.30;0.70;;;;;;;25.49;49.77;98958.25;5060473;28;20063;-68
2022/06/03 05:10:34;;;;;;;1.25;0.90;;;;;;;25.48;49.88;98959.47;5034216;28;20421;-68
2022/06/03 05:13:43;;;;;;;1.20;0.90;;;;;;;25.47;49.82;98981.09;5048022;28;20412;-68
2022/06/03 05:16:42;;;;;;;0.95;0.80;;;;;;;25.49;49.90;98977.88;5065278;28;20605;-69
2022/06/03 05:19:19;;;;;;;1.40;0.90;;;;;;;25.49;49.94;98977.88;5051043;28;20086;-69
2022/06/03 05:22:06;;;;;;;1.20;0.90;;;;;;;25.50;49.79;98966.28;5059869;28;20053;-69
2022/06/03 05:24:47;;;;;;;0.70;0.70;;;;;;;25.50;49.92;98957.06;5066144;28;20049;-68
2022/06/03 05:27:30;;;;;;;1.00;0.75;;;;;;;25.60;49.60;98949.75;5068289;28;20053;-70
2022/06/03 05:30:21;;;;;;;1.73;1.10;;;;;;;25.59;49.58;98946.16;5060879;28;20085;-70
2022/06/03 05:33:06;;;;;;;3.42;1.00;;;;;;;25.62;49.44;98952.91;5046912;28;20045;-69
2022/06/03 05:35:37;;;;;;;1.00;0.80;;;;;;;25.60;49.72;98949.75;5022460;28;20158;-70
2022/06/03 05:38:33;;;;;;;1.27;0.80;;;;;;;25.58;49.61;98935.38;5067785;28;20037;-68
2022/06/03 05:44:36;;;;;;;1.95;0.80;;;;;;;25.58;49.54;98943.78;4982837;28;20450;-69
2022/06/03 05:47:13;;;;;;;1.35;0.90;;;;;;;25.56;49.47;98946.97;4977665;28;20190;-69
2022/06/03 05:50:05;;;;;;;1.55;0.90;;;;;;;25.57;49.33;98939.38;4972140;28;20081;-69
2022/06/03 05:52:45;;;;;;;1.63;0.98;;;;;;;25.57;49.66;98945.75;4986578;28;20569;-68
2022/06/03 05:55:16;;;;;;;1.23;0.73;;;;;;;25.59;49.60;98950.97;4960107;28;20470;-69
2022/06/03 05:57:55;;;;;;;2.05;1.08;;;;;;;25.58;49.34;98952.97;4980927;28;20594;-69
2022/06/03 06:00:32;;;;;;;1.30;0.93;;;;;;;25.57;49.64;98959.78;4972292;28;20059;-69
2022/06/03 06:03:06;;;;;;;1.33;0.88;;;;;;;25.75;50.48;98965.19;4976224;28;20644;-69
2022/06/03 06:05:37;;;;;;;1.20;0.85;;;;;;;25.83;51.05;98955.47;4974899;28;20110;-69
2022/06/03 06:08:09;;;;;;;1.30;0.88;;;;;;;25.83;51.44;98958.28;4972799;28;20047;-69
2022/06/03 06:10:48;;;;;;;1.63;1.00;;;;;;;25.69;51.91;98955.63;4973213;28;20105;-69
2022/06/03 06:13:41;;;;;;;1.42;0.82;;;;;;;25.59;52.46;98964.97;4974747;28;20057;-69
2022/06/03 06:16:09;;;;;;;1.65;1.05;;;;;;;25.52;52.63;98969.44;4977356;28;20054;-69
2022/06/03 06:18:59;;;;;;;1.60;0.80;;;;;;;25.56;52.89;98982.59;4990044;28;20057;-69
2022/06/03 06:21:42;;;;;;;1.13;0.90;;;;;;;25.57;52.35;98984.97;5021363;28;20045;-69
2022/06/03 06:24:15;;;;;;;;;;;;;;;25.60;52.54;98984.16;5064245;28;20055;-69
2022/06/03 06:27:02;;;;;;;1.60;0.95;;;;;;;25.61;52.14;98982.94;5059096;28;20050;-69
2022/06/03 06:29:30;;;;;;;1.15;0.90;;;;;;;25.67;52.16;98986.88;5069311;28;20040;-69
2022/06/03 06:32:22;;;;;;;1.40;0.90;;;;;;;25.68;51.88;98991.25;5069286;28;20443;-69
2022/06/03 06:35:09;;;;;;;1.30;0.80;;;;;;;25.73;51.87;98988.03;5071126;28;20048;-69
2022/06/03 06:37:51;;;;;;;1.65;1.00;;;;;;;25.76;51.70;98990.00;5058766;28;20514;-69
2022/06/03 06:40:20;;;;;;;1.40;0.77;;;;;;;25.72;51.54;98988.47;5069179;28;20049;-69
2022/06/03 06:43:03;;;;;;;1.00;0.73;;;;;;;25.74;51.51;98984.00;5063780;28;20120;-69
2022/06/03 06:45:39;;;;;;;1.77;0.90;;;;;;;25.81;51.53;98983.13;5053023;28;20110;-69
2022/06/03 06:48:23;;;;;;;1.30;0.90;;;;;;;25.81;51.53;98983.13;5054776;28;20059;-69
2022/06/03 06:51:03;;;;;;;1.20;0.77;;;;;;;25.77;51.30;98979.56;5062138;28;20064;-69
2022/06/03 06:54:29;;;;;;;1.52;0.90;;;;;;;25.78;51.29;98981.94;5060627;28;20037;-69
2022/06/03 06:57:30;;;;;;;1.60;0.70;;;;;;;25.87;50.58;98989.06;4998194;28;20053;-65
2022/06/03 07:00:04;;;;;;;2.95;0.90;;;;;;;25.90;50.05;98994.63;4920367;29;20054;-66
2022/06/03 07:02:59;;;;;;;1.58;0.90;;;;;;;25.99;50.32;98988.50;4922224;29;20063;-69
2022/06/03 07:05:31;;;;;;;2.72;0.90;;;;;;;25.95;50.51;98987.75;4903720;29;20043;-67
2022/06/03 07:08:08;;;;;;;2.00;1.00;;;;;;;25.91;50.20;98995.41;4924843;29;20142;-66
2022/06/03 07:10:33;;;;;;;2.53;0.90;;;;;;;25.90;50.37;99016.25;4926891;29;20040;-64
2022/06/03 07:13:07;;;;;;;2.85;0.77;;;;;;;26.09;49.61;99026.81;4926546;29;20056;-65
2022/06/03 07:15:44;;;;;;;1.20;0.85;;;;;;;26.09;49.75;99020.41;4928392;29;20102;-65
2022/06/03 07:22:00;;;;;;;1.92;0.80;;;;;;;26.40;48.28;99030.41;4911563;29;20096;-65
2022/06/03 07:24:48;;;;;;;0.98;0.65;;;;;;;26.46;48.08;99022.34;5028772;28;20106;-65
2022/06/03 07:27:27;;;;;;;0.98;0.70;;;;;;;26.48;47.88;99025.50;4941049;28;20063;-65
2022/06/03 07:30:08;;;;;;;1.30;0.75;;;;;;;26.62;47.37;99042.13;4937026;28;20055;-65
2022/06/03 07:32:50;;;;;;;1.63;0.85;;;;;;;26.56;47.55;99032.59;4941765;28;20055;-65
2022/06/03 07:35:22;;;;;;;1.13;0.80;;;;;;;26.58;47.43;99042.19;4940791;29;20059;-66
2022/06/03 07:38:02;;;;;;;1.17;0.82;;;;;;;26.60;47.64;99044.56;4936755;28;20050;-64
2022/06/03 07:40:49;;;;;;;1.83;0.70;;;;;;;26.66;47.20;99040.06;4918307;29;20075;-70
2022/06/03 07:43:21;;;;;;;1.65;0.80;;;;;;;26.51;47.94;99049.91;4939722;29;20075;-70
2022/06/03 07:45:55;;;;;;;1.75;1.00;;;;;;;26.44;47.75;99042.41;4925710;28;20594;-69
2022/06/03 07:48:23;;;;;;;1.02;0.70;;;;;;;26.43;47.55;99040.00;4921794;29;20062;-70
2022/06/03 07:51:17;;;;;;;2.28;0.90;;;;;;;26.40;47.74;99041.63;4915266;29;20082;-70
2022/06/03 07:54:03;;;;;;;1.33;0.80;;;;;;;26.39;48.18;99037.25;4947488;28;20055;-67
2022/06/03 07:56:31;;;;;;;0.90;0.70;;;;;;;26.40;47.73;99030.41;4937735;29;20043;-68
2022/06/03 07:59:01;;;;;;;1.70;0.90;;;;;;;26.37;48.14;99034.06;4922798;29;20055;-69
2022/06/03 08:01:36;;;;;;;1.95;1.05;;;;;;;26.34;48.12;99035.66;4943856;29;20050;-70
2022/06/03 08:04:02;;;;;;;1.48;0.90;;;;;;;26.42;48.38;99039.19;4963883;28;20515;-70
2022/06/03 08:12:24;;;;;;;2.10;0.90;;;;;;;26.48;50.41;99040.31;5059863;28;20056;-69
2022/06/03 08:14:50;;;;;;;1.73;0.93;;;;;;;26.46;49.94;99033.56;5046760;28;20064;-67
2022/06/03 08:17:19;;;;;;;2.78;1.20;;;;;;;26.44;49.83;99042.41;5035741;28;20477;-68
2022/06/03 08:19:45;;;;;;;1.92;0.90;;;;;;;26.44;49.49;99056.41;5036362;28;20087;-72
2022/06/03 08:22:16;;;;;;;1.88;1.05;;;;;;;26.41;49.50;99065.66;5036987;28;20094;-68
2022/06/03 08:24:50;;;;;;;2.78;1.00;;;;;;;26.34;49.47;99083.34;5058893;28;20052;-69
2022/06/03 08:27:23;;;;;;;1.48;0.98;;;;;;;26.42;49.32;99100.91;5054293;28;20098;-69
2022/06/03 08:29:51;;;;;;;1.55;0.90;;;;;;;26.44;49.53;99112.50;5058456;28;20405;-69
2022/06/03 08:32:22;;;;;;;1.35;1.00;;;;;;;26.40;49.74;99122.19;5059224;28;20249;-68
2022/06/03 08:34:50;;;;;;;1.90;1.00;;;;;;;26.32;49.75;99102.59;5060882;28;20105;-67
2022/06/03 08:37:23;;;;;;;1.77;0.80;;;;;;;26.35;50.07;99106.56;5058511;28;20044;-68
2022/06/03 08:39:52;;;;;;;1.30;0.80;;;;;;;26.42;50.04;99100.91;5055520;28;20110;-69
2022/06/03 08:42:45;;;;;;;2.33;1.08;;;;;;;26.35;49.94;99137.41;5054367;28;20124;-67
2022/06/03 08:45:30;;;;;;;1.83;0.98;;;;;;;26.39;50.31;99157.00;5039050;28;20501;-70
2022/06/03 08:47:59;;;;;;;1.45;0.90;;;;;;;26.38;50.26;99183.47;5054484;28;20463;-71
2022/06/03 08:50:50;;;;;;;5.68;1.52;;;;;;;26.33;50.65;99160.28;5054642;28;20106;-69
2022/06/03 08:53:37;;;;;;;1.73;1.00;;;;;;;26.31;50.96;99143.09;5032398;28;20491;-74
2022/06/03 08:56:16;;;;;;;1.33;0.85;;;;;;;26.37;50.73;99153.84;5055555;28;20047;-75
2022/06/03 08:58:49;;;;;;;2.20;0.90;;;;;;;26.39;50.53;99177.47;5053391;28;20480;-75
2022/06/03 09:01:31;;;;;;;1.88;0.88;;;;;;;26.50;50.27;99192.13;5059346;28;20131;-74
2022/06/03 09:04:21;;;;;;;1.48;0.90;;;;;;;26.52;50.08;99200.16;5057803;28;20099;-66
2022/06/03 09:06:51;;;;;;;1.15;0.70;;;;;;;26.52;50.29;99197.34;5053846;28;20056;-67
2022/06/03 09:09:47;;;;;;;2.35;1.00;;;;;;;26.59;50.15;99194.47;5055773;28;20045;-67
2022/06/03 09:12:27;;;;;;;2.80;1.00;;;;;;;26.55;50.91;99199.31;5057807;28;20048;-67
2022/06/03 09:14:53;;;;;;;2.65;1.20;;;;;;;26.48;51.64;99213.41;5052197;28;20551;-70
2022/06/03 09:17:42;;;;;;;1.45;1.05;;;;;;;26.46;51.87;99224.28;5053475;28;20037;-70
2022/06/03 09:20:16;;;;;;;4.60;1.00;;;;;;;26.40;52.35;99246.38;5048387;28;20056;-67
2022/06/03 09:22:44;;;;;;;2.92;1.10;;;;;;;26.33;52.99;99232.38;5051881;28;20041;-68
2022/06/03 09:25:11;;;;;;;2.78;1.00;;;;;;;26.33;53.14;99219.16;5050229;28;20044;-68
2022/06/03 09:27:38;;;;;;;2.72;1.00;;;;;;;26.27;53.44;99240.44;5054479;28;20041;-75
2022/06/03 09:30:06;;;;;;;7.38;1.00;;;;;;;26.29;53.40;99257.69;5036863;28;20041;-75
2022/06/03 09:32:41;;;;;;;3.08;1.00;;;;;;;26.35;53.39;99250.38;5052518;28;20164;-75
2022/06/03 09:35:12;;;;;;;4.70;1.30;;;;;;;26.38;53.19;99245.16;5036501;28;20044;-69
2022/06/03 09:37:48;;;;;;;2.30;0.95;;;;;;;26.39;53.11;99252.38;5054196;28;20049;-69
2022/06/03 09:40:23;;;;;;;2.80;1.15;;;;;;;26.46;53.69;99249.50;5061292;28;20040;-68
2022/06/03 09:42:57;;;;;;;4.85;1.15;;;;;;;26.39;53.58;99236.38;5058610;28;20063;-67
2022/06/03 09:45:25;;;;;;;3.45;1.08;;;;;;;26.40;53.85;99235.16;5061356;28;20056;-67
2022/06/03 09:47:51;;;;;;;2.60;1.17;;;;;;;26.40;53.57;99237.16;5061648;28;20037;-68
2022/06/03 09:50:21;;;;;;;2.20;1.10;;;;;;;26.35;53.79;99239.16;5065137;28;21469;-68
2022/06/03 09:52:48;;;;;;;1.80;1.10;;;;;;;26.42;53.92;99245.94;5051762;28;20525;-68
2022/06/03 09:55:24;;;;;;;3.00;1.00;;;;;;;26.42;54.26;99245.94;5038748;28;20310;-65
2022/06/03 09:57:50;;;;;;;1.65;0.90;;;;;;;26.40;54.21;99246.38;5053235;28;20047;-63
2022/06/03 10:00:25;;;;;;;7.38;1.00;;;;;;;26.37;54.20;99249.19;5058834;28;20051;-64
2022/06/03 10:02:56;;;;;;;3.97;1.38;;;;;;;26.35;54.32;99243.97;5039281;28;20073;-63
2022/06/03 10:05:23;;;;;;;3.20;1.20;;;;;;;26.34;54.98;99240.38;5055495;28;20047;-64
2022/06/03 10:07:59;;;;;;;4.03;1.50;;;;;;;26.39;54.80;99246.75;5055906;28;20033;-64
2022/06/03 10:13:10;;;;;;;2.40;1.30;;;;;;;26.45;54.55;99225.50;5055224;28;20055;-65
2022/06/03 10:16:00;;;;;;;2.03;1.15;;;;;;;26.48;54.05;99224.63;5057518;28;20055;-64
2022/06/03 10:18:46;;;;;;;3.13;1.20;;;;;;;26.48;54.26;99222.63;5055089;28;20564;-69
2022/06/03 10:21:11;;;;;;;2.58;1.27;;;;;;;26.52;53.54;99223.41;5064706;28;20496;-70
2022/06/03 10:23:44;;;;;;;3.72;1.40;;;;;;;26.46;53.56;99230.69;5064147;28;20048;-70
2022/06/03 10:26:22;;;;;;;2.83;1.50;;;;;;;26.53;53.39;99239.00;5064666;28;20052;-69
2022/06/03 10:28:50;;;;;;;2.08;1.20;;;;;;;26.46;53.87;99252.31;5060674;28;20041;-69
2022/06/03 10:31:19;;;;;;;2.30;1.27;;;;;;;26.44;54.09;99254.75;5063104;28;20072;-68
2022/06/03 10:33:57;;;;;;;2.00;1.30;;;;;;;26.42;53.83;99248.75;5063841;28;20040;-69
2022/06/03 10:36:37;;;;;;;2.00;1.20;;;;;;;26.40;53.96;99242.75;5067291;28;20068;-68
2022/06/03 10:39:04;;;;;;;2.88;1.27;;;;;;;26.41;53.58;99238.75;5067686;28;20431;-68
2022/06/03 10:41:34;;;;;;;2.03;1.20;;;;;;;26.35;54.16;99235.56;5049988;28;20469;-69
2022/06/03 10:44:00;;;;;;;1.90;1.13;;;;;;;26.35;54.28;99246.78;5053896;28;20452;-69
2022/06/03 10:46:25;;;;;;;2.38;1.30;;;;;;;26.33;54.31;99247.19;5064447;28;20492;-69
2022/06/03 10:48:51;;;;;;;1.67;1.05;;;;;;;26.33;54.25;99243.59;5055334;28;20063;-68
2022/06/03 11:02:44;;;;;;;1.65;1.00;;;;;;;26.28;54.44;99244.84;5060064;28;20048;-69
2022/06/03 11:05:11;;;;;;;1.85;0.95;;;;;;;26.31;54.77;99246.84;5067282;28;20059;-69
2022/06/03 11:07:37;;;;;;;1.33;0.95;;;;;;;26.34;54.62;99239.59;5069381;28;20049;-69
2022/06/03 11:10:26;;;;;;;2.50;1.20;;;;;;;26.29;55.47;99237.22;5068204;28;20095;-69
2022/06/03 11:12:58;;;;;;;1.90;1.10;;;;;;;26.41;54.98;99230.31;5054763;28;20040;-68
2022/06/03 11:15:44;;;;;;;2.17;1.20;;;;;;;26.40;55.00;99228.75;5065473;28;20436;-69
2022/06/03 11:18:29;;;;;;;1.40;0.93;;;;;;;26.34;54.82;99234.78;5066032;28;20079;-71
2022/06/03 11:20:56;;;;;;;1.73;1.10;;;;;;;26.45;54.91;99217.88;5064238;28;20040;-62
2022/06/03 11:23:22;;;;;;;1.27;0.90;;;;;;;26.53;54.58;99218.56;5064193;28;20444;-64
2022/06/03 11:25:54;;;;;;;1.60;1.05;;;;;;;26.57;54.59;99210.91;5056455;28;20048;-65
2022/06/03 11:28:30;;;;;;;1.98;1.10;;;;;;;26.57;54.54;99197.66;5068253;28;20080;-64
2022/06/03 11:30:55;;;;;;;1.40;0.80;;;;;;;26.53;54.47;99196.13;5057202;28;20540;-64
2022/06/03 11:33:39;;;;;;;1.30;1.00;;;;;;;26.54;54.28;99178.88;5062754;28;20076;-63
2022/06/03 11:36:13;;;;;;;2.53;1.00;;;;;;;26.58;53.88;99171.22;5063452;28;20120;-63
2022/06/03 11:38:49;;;;;;;2.20;0.80;;;;;;;26.63;53.82;99167.16;5061383;28;20047;-63
2022/06/03 11:41:19;;;;;;;1.65;0.80;;;;;;;26.60;53.90;99168.00;5039381;28;20419;-64
2022/06/03 11:43:51;;;;;;;1.75;1.10;;;;;;;26.61;53.76;99164.75;5046599;28;20414;-63
2022/06/03 11:46:30;;;;;;;1.23;0.90;;;;;;;26.63;53.37;99161.53;5058725;28;20047;-64
2022/06/03 11:48:57;;;;;;;2.17;0.90;;;;;;;26.56;53.50;99158.81;5051946;28;20167;-62
2022/06/03 11:51:25;;;;;;;1.33;0.98;;;;;;;26.52;53.52;99149.66;5058887;28;20036;-63
2022/06/03 11:53:52;;;;;;;2.20;1.10;;;;;;;26.55;53.52;99158.03;5055867;28;20049;-62
2022/06/03 11:56:26;;;;;;;2.45;1.00;;;;;;;26.59;53.28;99153.19;5040480;28;20512;-63
2022/06/03 11:58:56;;;;;;;1.83;0.90;;;;;;;26.70;53.65;99139.00;5044255;28;20048;-68
2022/06/03 12:01:25;;;;;;;3.95;1.23;;;;;;;26.62;54.75;99131.91;5037176;28;20857;-70
2022/06/03 12:04:21;;;;;;;1.50;0.90;;;;;;;26.60;55.48;99117.50;5054622;28;20503;-69
2022/06/03 12:07:06;;;;;;;4.15;1.25;;;;;;;26.64;55.53;99126.66;5050530;28;20052;-69
2022/06/03 12:09:55;;;;;;;1.70;1.05;;;;;;;26.74;54.90;99117.31;5038776;28;20037;-71
2022/06/03 12:15:31;;;;;;;3.08;1.20;;;;;;;26.82;55.02;99101.94;5051480;28;20062;-72
2022/06/03 12:18:06;;;;;;;1.73;1.00;;;;;;;26.84;54.97;99099.50;5037824;28;20508;-72
2022/06/03 12:20:31;;;;;;;1.70;1.02;;;;;;;26.87;54.50;99093.06;5049960;28;20323;-71
2022/06/03 12:23:18;;;;;;;1.63;0.90;;;;;;;26.88;54.06;99089.03;5049695;28;20503;-65
2022/06/03 12:25:51;;;;;;;2.28;1.10;;;;;;;26.92;54.30;99082.56;5037255;28;20115;-66
2022/06/03 12:28:42;;;;;;;1.50;1.02;;;;;;;26.91;54.15;99070.53;5040968;28;20402;-64
2022/06/03 12:31:29;;;;;;;1.25;0.80;;;;;;;26.94;53.93;99063.31;5048644;28;20049;-66
2022/06/03 12:33:57;;;;;;;1.45;0.98;;;;;;;26.85;54.70;99061.78;5047943;28;20041;-68
2022/06/03 12:36:52;;;;;;;2.05;1.10;;;;;;;26.87;54.57;99058.59;5051648;28;20082;-66
2022/06/03 12:39:18;;;;;;;2.88;1.58;;;;;;;26.84;54.68;99057.41;5060387;28;20044;-69
2022/06/03 12:41:46;;;;;;;2.28;1.38;;;;;;;26.81;54.65;99058.28;5040296;28;20048;-69
2022/06/03 12:44:33;;;;;;;1.80;1.10;;;;;;;26.90;54.14;99049.31;5049964;28;20048;-68
2022/06/03 12:47:34;;;;;;;2.00;1.17;;;;;;;26.99;53.81;99023.50;5041607;28;20562;-66
2022/06/03 12:50:35;;;;;;;2.50;1.20;;;;;;;27.03;53.63;99016.63;5055094;28;20050;-67
2022/06/03 12:53:20;;;;;;;1.42;1.05;;;;;;;27.07;53.37;99025.78;5049346;28;20103;-68
2022/06/03 12:55:53;;;;;;;4.25;1.20;;;;;;;27.07;52.95;99033.41;5055662;28;20072;-78
2022/06/03 12:58:43;;;;;;;1.50;1.05;;;;;;;27.09;52.61;99014.94;5052984;28;20570;-67
2022/06/03 13:01:10;;;;;;;3.00;1.20;;;;;;;26.98;53.01;99011.47;5049715;28;20049;-69
2022/06/03 13:03:35;;;;;;;2.03;0.90;;;;;;;26.94;52.90;99009.97;5055890;28;20091;-72
2022/06/03 13:06:03;;;;;;;1.75;1.10;;;;;;;26.95;52.79;99009.53;5036620;28;21002;-74
2022/06/03 13:08:28;;;;;;;1.20;0.90;;;;;;;26.92;52.96;98999.16;5050454;28;20048;-67
2022/06/03 13:10:55;;;;;;;2.22;1.00;;;;;;;26.95;52.94;99005.94;5049779;28;20049;-67
2022/06/03 13:13:21;;;;;;;2.08;1.20;;;;;;;26.96;52.88;98987.88;5041171;28;20413;-68